sensor_id;sensor_type;location;lat;lon;timestamp;pressure;altitude;pressure_sealevel;temperature;humidity
22241;BME280;11289;52.524;13.694;2023-08-17T00:00:14;101441.41;;;21.68;67.40
22241;BME280;11289;52.524;13.694;2023-08-17T00:02:41;101434.53;;;21.69;67.71
22241;BME280;11289;52.524;13.694;2023-08-17T00:05:07;101446.22;;;21.68;67.34
22241;BME280;11289;52.524;13.694;2023-08-17T00:07:33;101447.81;;;21.65;67.64
22241;BME280;11289;52.524;13.694;2023-08-17T00:09:59;101457.16;;;21.69;67.52
22241;BME280;11289;52.524;13.694;2023-08-17T00:12:25;101450.63;;;21.62;67.57
22241;BME280;11289;52.524;13.694;2023-08-17T00:14:52;101455.94;;;21.67;67.51
22241;BME280;11289;52.524;13.694;2023-08-17T00:17:18;101456.28;;;21.65;67.46
22241;BME280;11289;52.524;13.694;2023-08-17T00:19:44;101444.56;;;21.63;67.44
22241;BME280;11289;52.524;13.694;2023-08-17T00:22:10;101446.97;;;21.61;67.57
22241;BME280;11289;52.524;13.694;2023-08-17T00:24:37;101448.50;;;21.55;67.94
22241;BME280;11289;52.524;13.694;2023-08-17T00:27:03;101454.03;;;21.44;68.12
22241;BME280;11289;52.524;13.694;2023-08-17T00:29:30;101445.50;;;21.40;68.33
22241;BME280;11289;52.524;13.694;2023-08-17T00:31:56;101432.19;;;21.41;68.41
22241;BME280;11289;52.524;13.694;2023-08-17T00:34:22;101435.41;;;21.39;68.71
22241;BME280;11289;52.524;13.694;2023-08-17T00:36:48;101435.84;;;21.42;68.71
22241;BME280;11289;52.524;13.694;2023-08-17T00:39:14;101428.13;;;21.38;68.77
22241;BME280;11289;52.524;13.694;2023-08-17T00:41:40;101420.84;;;21.37;68.54
22241;BME280;11289;52.524;13.694;2023-08-17T00:44:06;101415.19;;;21.37;68.50
22241;BME280;11289;52.524;13.694;2023-08-17T00:46:32;101426.47;;;21.34;68.55
22241;BME280;11289;52.524;13.694;2023-08-17T00:48:59;101428.50;;;21.33;68.51
22241;BME280;11289;52.524;13.694;2023-08-17T00:51:26;101423.19;;;21.28;68.43
22241;BME280;11289;52.524;13.694;2023-08-17T00:53:54;101431.22;;;21.26;68.51
22241;BME280;11289;52.524;13.694;2023-08-17T00:56:21;101426.31;;;21.23;68.39
22241;BME280;11289;52.524;13.694;2023-08-17T00:58:48;101432.75;;;21.20;68.57
22241;BME280;11289;52.524;13.694;2023-08-17T01:01:17;101432.34;;;21.21;68.65
22241;BME280;11289;52.524;13.694;2023-08-17T01:03:43;101437.13;;;21.14;68.77
22241;BME280;11289;52.524;13.694;2023-08-17T01:06:09;101437.41;;;21.05;68.98
22241;BME280;11289;52.524;13.694;2023-08-17T01:08:39;101429.22;;;20.96;69.10
22241;BME280;11289;52.524;13.694;2023-08-17T01:11:27;101440.09;;;20.94;69.31
22241;BME280;11289;52.524;13.694;2023-08-17T01:14:01;101430.00;;;20.93;69.64
22241;BME280;11289;52.524;13.694;2023-08-17T01:16:33;101424.34;;;20.93;69.47
22241;BME280;11289;52.524;13.694;2023-08-17T01:19:08;101419.38;;;20.83;69.53
22241;BME280;11289;52.524;13.694;2023-08-17T01:21:41;101425.06;;;20.86;69.43
22241;BME280;11289;52.524;13.694;2023-08-17T01:24:11;101414.50;;;20.80;69.56
22241;BME280;11289;52.524;13.694;2023-08-17T01:26:43;101420.91;;;20.77;69.91
22241;BME280;11289;52.524;13.694;2023-08-17T01:29:09;101421.72;;;20.77;69.61
22241;BME280;11289;52.524;13.694;2023-08-17T01:31:43;101418.09;;;20.77;69.63
22241;BME280;11289;52.524;13.694;2023-08-17T01:34:14;101425.34;;;20.78;69.41
22241;BME280;11289;52.524;13.694;2023-08-17T01:36:50;101410.75;;;20.72;69.44
22241;BME280;11289;52.524;13.694;2023-08-17T01:39:19;101411.34;;;20.58;69.59
22241;BME280;11289;52.524;13.694;2023-08-17T01:41:47;101414.84;;;20.48;70.04
22241;BME280;11289;52.524;13.694;2023-08-17T01:44:13;101411.56;;;20.46;70.53
22241;BME280;11289;52.524;13.694;2023-08-17T01:46:40;101417.97;;;20.43;70.00
22241;BME280;11289;52.524;13.694;2023-08-17T01:49:07;101407.88;;;20.42;70.42
22241;BME280;11289;52.524;13.694;2023-08-17T01:51:33;101418.72;;;20.40;70.36
22241;BME280;11289;52.524;13.694;2023-08-17T01:53:59;101401.03;;;20.16;70.67
22241;BME280;11289;52.524;13.694;2023-08-17T01:56:25;101412.44;;;20.23;70.79
22241;BME280;11289;52.524;13.694;2023-08-17T01:58:51;101426.66;;;20.30;71.02
22241;BME280;11289;52.524;13.694;2023-08-17T02:01:17;101420.94;;;20.27;70.97
22241;BME280;11289;52.524;13.694;2023-08-17T02:03:43;101424.13;;;20.25;71.15
22241;BME280;11289;52.524;13.694;2023-08-17T02:06:09;101422.47;;;20.21;70.82
22241;BME280;11289;52.524;13.694;2023-08-17T02:08:37;101424.50;;;20.24;70.67
22241;BME280;11289;52.524;13.694;2023-08-17T02:11:12;101416.75;;;20.17;70.80
22241;BME280;11289;52.524;13.694;2023-08-17T02:13:38;101438.19;;;20.22;70.70
22241;BME280;11289;52.524;13.694;2023-08-17T02:16:04;101432.94;;;20.20;70.79
22241;BME280;11289;52.524;13.694;2023-08-17T02:18:30;101429.66;;;20.18;71.28
22241;BME280;11289;52.524;13.694;2023-08-17T02:20:58;101424.34;;;20.13;71.11
22241;BME280;11289;52.524;13.694;2023-08-17T02:23:24;101423.41;;;20.05;71.23
22241;BME280;11289;52.524;13.694;2023-08-17T02:25:50;101424.66;;;20.08;71.47
22241;BME280;11289;52.524;13.694;2023-08-17T02:28:16;101423.09;;;20.10;71.07
22241;BME280;11289;52.524;13.694;2023-08-17T02:30:46;101423.91;;;20.11;71.35
22241;BME280;11289;52.524;13.694;2023-08-17T02:33:15;101385.59;;;19.83;71.14
22241;BME280;11289;52.524;13.694;2023-08-17T02:35:41;101418.13;;;20.04;71.43
22241;BME280;11289;52.524;13.694;2023-08-17T02:38:07;101415.03;;;20.09;71.39
22241;BME280;11289;52.524;13.694;2023-08-17T02:40:35;101410.44;;;20.00;71.39
22241;BME280;11289;52.524;13.694;2023-08-17T02:43:01;101424.47;;;19.97;71.85
22241;BME280;11289;52.524;13.694;2023-08-17T02:45:30;101418.34;;;19.91;71.94
22241;BME280;11289;52.524;13.694;2023-08-17T02:47:56;101409.50;;;19.93;71.46
22241;BME280;11289;52.524;13.694;2023-08-17T02:50:23;101415.53;;;19.91;71.09
22241;BME280;11289;52.524;13.694;2023-08-17T02:52:49;101413.00;;;19.86;71.55
22241;BME280;11289;52.524;13.694;2023-08-17T02:55:15;101412.88;;;19.79;71.59
22241;BME280;11289;52.524;13.694;2023-08-17T02:57:41;101391.56;;;19.58;71.98
22241;BME280;11289;52.524;13.694;2023-08-17T03:00:08;101394.09;;;19.63;72.39
22241;BME280;11289;52.524;13.694;2023-08-17T03:02:35;101398.00;;;19.59;72.65
22241;BME280;11289;52.524;13.694;2023-08-17T03:05:02;101381.66;;;19.45;72.54
22241;BME280;11289;52.524;13.694;2023-08-17T03:07:28;101376.94;;;19.49;72.98
22241;BME280;11289;52.524;13.694;2023-08-17T03:09:54;101364.19;;;19.36;72.50
22241;BME280;11289;52.524;13.694;2023-08-17T03:12:20;101381.81;;;19.52;72.66
22241;BME280;11289;52.524;13.694;2023-08-17T03:14:47;101385.81;;;19.51;72.55
22241;BME280;11289;52.524;13.694;2023-08-17T03:17:13;101376.94;;;19.49;72.27
22241;BME280;11289;52.524;13.694;2023-08-17T03:19:39;101377.22;;;19.44;72.24
22241;BME280;11289;52.524;13.694;2023-08-17T03:22:05;101376.47;;;19.47;72.16
22241;BME280;11289;52.524;13.694;2023-08-17T03:24:31;101372.72;;;19.39;72.36
22241;BME280;11289;52.524;13.694;2023-08-17T03:26:57;101374.72;;;19.39;71.97
22241;BME280;11289;52.524;13.694;2023-08-17T03:29:23;101383.97;;;19.39;72.20
22241;BME280;11289;52.524;13.694;2023-08-17T03:31:49;101361.31;;;19.32;72.00
22241;BME280;11289;52.524;13.694;2023-08-17T03:34:15;101377.72;;;19.49;71.63
22241;BME280;11289;52.524;13.694;2023-08-17T03:36:41;101389.00;;;19.49;71.48
22241;BME280;11289;52.524;13.694;2023-08-17T03:39:07;101391.19;;;19.60;71.15
22241;BME280;11289;52.524;13.694;2023-08-17T03:41:33;101394.09;;;19.63;71.22
22241;BME280;11289;52.524;13.694;2023-08-17T03:44:03;101391.28;;;19.63;70.98
22241;BME280;11289;52.524;13.694;2023-08-17T03:46:31;101380.44;;;19.65;71.02
22241;BME280;11289;52.524;13.694;2023-08-17T03:48:57;101384.13;;;19.70;71.07
22241;BME280;11289;52.524;13.694;2023-08-17T03:51:23;101378.91;;;19.72;70.77
22241;BME280;11289;52.524;13.694;2023-08-17T03:53:49;101379.00;;;19.75;70.59
22241;BME280;11289;52.524;13.694;2023-08-17T03:56:15;101386.25;;;19.76;70.57
22241;BME280;11289;52.524;13.694;2023-08-17T03:58:41;101386.34;;;19.80;70.26
22241;BME280;11289;52.524;13.694;2023-08-17T04:01:08;101380.72;;;19.80;70.00
22241;BME280;11289;52.524;13.694;2023-08-17T04:03:34;101370.94;;;19.74;70.01
22241;BME280;11289;52.524;13.694;2023-08-17T04:06:07;101373.78;;;19.77;69.92
22241;BME280;11289;52.524;13.694;2023-08-17T04:08:38;101376.56;;;19.74;69.57
22241;BME280;11289;52.524;13.694;2023-08-17T04:11:05;101377.53;;;19.81;69.63
22241;BME280;11289;52.524;13.694;2023-08-17T04:13:31;101371.09;;;19.81;69.51
22241;BME280;11289;52.524;13.694;2023-08-17T04:15:58;101367.00;;;19.78;69.14
22241;BME280;11289;52.524;13.694;2023-08-17T04:18:24;101370.25;;;19.80;69.06
22241;BME280;11289;52.524;13.694;2023-08-17T04:20:50;101366.63;;;19.80;68.99
22241;BME280;11289;52.524;13.694;2023-08-17T04:23:16;101369.34;;;19.76;69.10
22241;BME280;11289;52.524;13.694;2023-08-17T04:25:43;101373.78;;;19.77;69.05
22241;BME280;11289;52.524;13.694;2023-08-17T04:28:09;101368.53;;;19.76;68.97
22241;BME280;11289;52.524;13.694;2023-08-17T04:30:35;101356.53;;;19.79;68.95
22241;BME280;11289;52.524;13.694;2023-08-17T04:33:01;101360.66;;;19.85;68.66
22241;BME280;11289;52.524;13.694;2023-08-17T04:35:27;101364.34;;;19.89;68.48
22241;BME280;11289;52.524;13.694;2023-08-17T04:37:53;101354.59;;;19.83;68.39
22241;BME280;11289;52.524;13.694;2023-08-17T04:40:19;101359.94;;;19.88;68.42
22241;BME280;11289;52.524;13.694;2023-08-17T04:42:45;101356.78;;;19.93;68.28
22241;BME280;11289;52.524;13.694;2023-08-17T04:45:11;101364.16;;;20.02;68.01
22241;BME280;11289;52.524;13.694;2023-08-17T04:47:37;101374.34;;;20.10;67.09
22241;BME280;11289;52.524;13.694;2023-08-17T04:50:03;101375.19;;;20.10;67.52
22241;BME280;11289;52.524;13.694;2023-08-17T04:52:29;101379.28;;;20.16;67.39
22241;BME280;11289;52.524;13.694;2023-08-17T04:54:55;101361.19;;;20.17;67.39
22241;BME280;11289;52.524;13.694;2023-08-17T04:57:21;101373.78;;;20.24;67.35
22241;BME280;11289;52.524;13.694;2023-08-17T04:59:47;101377.09;;;20.29;67.36
22241;BME280;11289;52.524;13.694;2023-08-17T05:02:13;101394.91;;;20.37;66.79
22241;BME280;11289;52.524;13.694;2023-08-17T05:04:39;101386.06;;;20.39;66.64
22241;BME280;11289;52.524;13.694;2023-08-17T05:07:05;101380.50;;;20.42;65.57
22241;BME280;11289;52.524;13.694;2023-08-17T05:09:31;101390.94;;;20.42;65.71
22241;BME280;11289;52.524;13.694;2023-08-17T05:11:57;101387.44;;;20.48;66.38
22241;BME280;11289;52.524;13.694;2023-08-17T05:14:23;101387.16;;;20.57;65.88
22241;BME280;11289;52.524;13.694;2023-08-17T05:16:49;101393.28;;;20.63;65.32
22241;BME280;11289;52.524;13.694;2023-08-17T05:19:15;101399.84;;;20.70;65.44
22241;BME280;11289;52.524;13.694;2023-08-17T05:21:41;101385.81;;;20.74;65.22
22241;BME280;11289;52.524;13.694;2023-08-17T05:24:07;101391.78;;;20.69;64.47
22241;BME280;11289;52.524;13.694;2023-08-17T05:26:34;101381.56;;;20.61;64.58
22241;BME280;11289;52.524;13.694;2023-08-17T05:29:00;101374.34;;;20.63;64.31
22241;BME280;11289;52.524;13.694;2023-08-17T05:31:26;101371.91;;;20.62;64.46
22241;BME280;11289;52.524;13.694;2023-08-17T05:33:52;101372.72;;;20.62;64.43
22241;BME280;11289;52.524;13.694;2023-08-17T05:36:18;101378.91;;;20.72;64.46
22241;BME280;11289;52.524;13.694;2023-08-17T05:38:44;101373.22;;;20.68;64.77
22241;BME280;11289;52.524;13.694;2023-08-17T05:41:09;101374.84;;;20.69;64.26
22241;BME280;11289;52.524;13.694;2023-08-17T05:43:35;101372.09;;;20.73;64.28
22241;BME280;11289;52.524;13.694;2023-08-17T05:46:01;101377.44;;;20.81;63.69
22241;BME280;11289;52.524;13.694;2023-08-17T05:48:28;101380.75;;;20.87;63.92
22241;BME280;11289;52.524;13.694;2023-08-17T05:50:57;101371.94;;;20.92;63.97
22241;BME280;11289;52.524;13.694;2023-08-17T05:53:23;101371.25;;;21.02;63.23
22241;BME280;11289;52.524;13.694;2023-08-17T05:55:49;101348.84;;;20.83;63.24
22241;BME280;11289;52.524;13.694;2023-08-17T05:58:15;101371.25;;;21.02;63.57
22241;BME280;11289;52.524;13.694;2023-08-17T06:00:42;101367.22;;;21.03;63.34
22241;BME280;11289;52.524;13.694;2023-08-17T06:03:08;101384.25;;;21.11;62.28
22241;BME280;11289;52.524;13.694;2023-08-17T06:05:34;101381.53;;;21.21;62.91
22241;BME280;11289;52.524;13.694;2023-08-17T06:08:00;101388.19;;;21.36;62.34
22241;BME280;11289;52.524;13.694;2023-08-17T06:10:26;101396.09;;;21.58;62.38
22241;BME280;11289;52.524;13.694;2023-08-17T06:12:53;101396.34;;;21.83;62.44
22241;BME280;11289;52.524;13.694;2023-08-17T06:15:19;101404.50;;;21.95;60.65
22241;BME280;11289;52.524;13.694;2023-08-17T06:17:45;101399.84;;;22.17;61.07
22241;BME280;11289;52.524;13.694;2023-08-17T06:20:12;101412.13;;;22.36;60.23
22241;BME280;11289;52.524;13.694;2023-08-17T06:22:38;101429.25;;;22.61;58.80
22241;BME280;11289;52.524;13.694;2023-08-17T06:25:04;101439.13;;;22.82;57.72
22241;BME280;11289;52.524;13.694;2023-08-17T06:27:32;101452.50;;;22.92;57.42
22241;BME280;11289;52.524;13.694;2023-08-17T06:29:58;101450.84;;;22.80;57.60
22241;BME280;11289;52.524;13.694;2023-08-17T06:32:23;101466.09;;;22.65;57.46
22241;BME280;11289;52.524;13.694;2023-08-17T06:34:49;101475.25;;;22.47;58.45
22241;BME280;11289;52.524;13.694;2023-08-17T06:37:15;101489.69;;;22.35;59.17
22241;BME280;11289;52.524;13.694;2023-08-17T06:39:41;101467.69;;;22.14;59.64
22241;BME280;11289;52.524;13.694;2023-08-17T06:42:07;101456.72;;;22.08;60.03
22241;BME280;11289;52.524;13.694;2023-08-17T06:46:59;101442.50;;;21.98;61.79
22241;BME280;11289;52.524;13.694;2023-08-17T06:49:26;101449.03;;;22.05;61.84
22241;BME280;11289;52.524;13.694;2023-08-17T06:51:52;101453.16;;;22.19;61.11
22241;BME280;11289;52.524;13.694;2023-08-17T06:54:18;101451.59;;;22.21;61.01
22241;BME280;11289;52.524;13.694;2023-08-17T06:56:44;101444.34;;;22.27;60.97
22241;BME280;11289;52.524;13.694;2023-08-17T06:59:10;101452.13;;;22.34;60.57
22241;BME280;11289;52.524;13.694;2023-08-17T07:01:35;101449.31;;;22.38;61.35
22241;BME280;11289;52.524;13.694;2023-08-17T07:04:02;101445.34;;;22.46;59.97
22241;BME280;11289;52.524;13.694;2023-08-17T07:06:28;101442.94;;;22.52;58.62
22241;BME280;11289;52.524;13.694;2023-08-17T07:08:54;101448.66;;;22.55;59.99
22241;BME280;11289;52.524;13.694;2023-08-17T07:11:20;101453.53;;;22.62;59.19
22241;BME280;11289;52.524;13.694;2023-08-17T07:13:46;101453.94;;;22.60;59.38
22241;BME280;11289;52.524;13.694;2023-08-17T07:16:13;101448.22;;;22.53;59.46
22241;BME280;11289;52.524;13.694;2023-08-17T07:18:39;101445.38;;;22.53;59.86
22241;BME280;11289;52.524;13.694;2023-08-17T07:21:05;101443.00;;;22.55;59.79
22241;BME280;11289;52.524;13.694;2023-08-17T07:23:31;101445.81;;;22.55;59.42
22241;BME280;11289;52.524;13.694;2023-08-17T07:25:58;101438.88;;;22.49;59.97
22241;BME280;11289;52.524;13.694;2023-08-17T07:28:24;101464.53;;;22.74;60.61
22241;BME280;11289;52.524;13.694;2023-08-17T07:30:49;101450.47;;;22.89;60.14
22241;BME280;11289;52.524;13.694;2023-08-17T07:33:15;101458.66;;;23.05;60.42
22241;BME280;11289;52.524;13.694;2023-08-17T07:35:41;101448.13;;;23.05;59.24
22241;BME280;11289;52.524;13.694;2023-08-17T07:38:07;101448.91;;;23.06;59.68
22241;BME280;11289;52.524;13.694;2023-08-17T07:40:33;101453.03;;;23.16;59.06
22241;BME280;11289;52.524;13.694;2023-08-17T07:42:59;101441.75;;;23.23;58.90
22241;BME280;11289;52.524;13.694;2023-08-17T07:45:26;101444.59;;;23.26;58.95
22241;BME280;11289;52.524;13.694;2023-08-17T07:47:52;101448.25;;;23.30;58.77
22241;BME280;11289;52.524;13.694;2023-08-17T07:50:18;101452.28;;;23.22;58.94
22241;BME280;11289;52.524;13.694;2023-08-17T07:52:45;101449.81;;;23.14;60.31
22241;BME280;11289;52.524;13.694;2023-08-17T07:55:11;101443.59;;;22.90;60.02
22241;BME280;11289;52.524;13.694;2023-08-17T07:57:37;101444.50;;;23.05;60.34
22241;BME280;11289;52.524;13.694;2023-08-17T08:00:04;101441.31;;;23.17;59.71
22241;BME280;11289;52.524;13.694;2023-08-17T08:02:30;101441.34;;;23.21;59.38
22241;BME280;11289;52.524;13.694;2023-08-17T08:04:56;101447.38;;;23.12;59.22
22241;BME280;11289;52.524;13.694;2023-08-17T08:07:21;101448.22;;;23.20;59.93
22241;BME280;11289;52.524;13.694;2023-08-17T08:09:47;101441.72;;;23.12;59.73
22241;BME280;11289;52.524;13.694;2023-08-17T08:12:13;101448.22;;;23.23;59.96
22241;BME280;11289;52.524;13.694;2023-08-17T08:14:39;101444.56;;;23.19;59.80
22241;BME280;11289;52.524;13.694;2023-08-17T08:17:05;101439.28;;;23.14;60.13
22241;BME280;11289;52.524;13.694;2023-08-17T08:19:31;101437.72;;;23.24;59.87
22241;BME280;11289;52.524;13.694;2023-08-17T08:21:58;101442.59;;;23.34;60.49
22241;BME280;11289;52.524;13.694;2023-08-17T08:24:24;101441.03;;;23.44;59.84
22241;BME280;11289;52.524;13.694;2023-08-17T08:26:51;101438.59;;;23.50;59.42
22241;BME280;11289;52.524;13.694;2023-08-17T08:29:18;101404.59;;;23.53;59.48
22241;BME280;11289;52.524;13.694;2023-08-17T08:31:44;101424.91;;;23.73;58.88
22241;BME280;11289;52.524;13.694;2023-08-17T08:34:10;101418.44;;;23.84;59.20
22241;BME280;11289;52.524;13.694;2023-08-17T08:36:36;101417.25;;;23.95;58.93
22241;BME280;11289;52.524;13.694;2023-08-17T08:39:02;101419.28;;;23.98;59.30
22241;BME280;11289;52.524;13.694;2023-08-17T08:41:29;101416.84;;;24.19;58.56
22241;BME280;11289;52.524;13.694;2023-08-17T08:43:55;101416.41;;;24.34;57.44
22241;BME280;11289;52.524;13.694;2023-08-17T08:46:22;101404.66;;;24.43;57.42
22241;BME280;11289;52.524;13.694;2023-08-17T08:48:50;101395.31;;;24.46;58.17
22241;BME280;11289;52.524;13.694;2023-08-17T08:51:23;101403.78;;;24.75;56.83
22241;BME280;11289;52.524;13.694;2023-08-17T08:53:58;101401.72;;;24.94;57.07
22241;BME280;11289;52.524;13.694;2023-08-17T08:56:26;101410.44;;;25.35;56.18
22241;BME280;11289;52.524;13.694;2023-08-17T08:58:52;101411.44;;;25.74;54.94
22241;BME280;11289;52.524;13.694;2023-08-17T09:01:19;101401.00;;;26.13;54.05
22241;BME280;11289;52.524;13.694;2023-08-17T09:03:47;101399.78;;;26.55;53.00
22241;BME280;11289;52.524;13.694;2023-08-17T09:06:15;101389.19;;;26.94;52.38
22241;BME280;11289;52.524;13.694;2023-08-17T09:08:43;101391.81;;;27.12;52.10
22241;BME280;11289;52.524;13.694;2023-08-17T09:11:09;101377.28;;;27.34;51.34
22241;BME280;11289;52.524;13.694;2023-08-17T09:13:35;101378.09;;;27.61;50.24
22241;BME280;11289;52.524;13.694;2023-08-17T09:16:01;101376.75;;;27.70;49.45
22241;BME280;11289;52.524;13.694;2023-08-17T09:18:27;101381.47;;;27.80;49.94
22241;BME280;11289;52.524;13.694;2023-08-17T09:20:54;101384.56;;;27.89;49.50
22241;BME280;11289;52.524;13.694;2023-08-17T09:23:21;101373.47;;;27.71;49.28
22241;BME280;11289;52.524;13.694;2023-08-17T09:25:48;101372.06;;;27.56;50.00
22241;BME280;11289;52.524;13.694;2023-08-17T09:28:16;101373.69;;;27.57;50.38
22241;BME280;11289;52.524;13.694;2023-08-17T09:33:17;101362.16;;;27.37;50.28
22241;BME280;11289;52.524;13.694;2023-08-17T09:35:43;101363.09;;;27.26;50.94
22241;BME280;11289;52.524;13.694;2023-08-17T09:38:09;101360.56;;;27.05;51.51
22241;BME280;11289;52.524;13.694;2023-08-17T09:40:35;101365.50;;;27.01;52.02
22241;BME280;11289;52.524;13.694;2023-08-17T09:43:02;101369.44;;;26.80;52.19
22241;BME280;11289;52.524;13.694;2023-08-17T09:45:28;101368.53;;;26.48;53.96
22241;BME280;11289;52.524;13.694;2023-08-17T09:47:54;101362.75;;;26.17;54.39
22241;BME280;11289;52.524;13.694;2023-08-17T09:50:23;101366.69;;;25.85;55.36
22241;BME280;11289;52.524;13.694;2023-08-17T09:52:54;101370.91;;;25.63;55.90
22241;BME280;11289;52.524;13.694;2023-08-17T09:55:21;101350.41;;;25.33;56.37
22241;BME280;11289;52.524;13.694;2023-08-17T09:57:52;101345.16;;;25.21;57.00
22241;BME280;11289;52.524;13.694;2023-08-17T10:00:20;101350.16;;;24.99;57.44
22241;BME280;11289;52.524;13.694;2023-08-17T10:02:50;101345.38;;;24.81;58.20
22241;BME280;11289;52.524;13.694;2023-08-17T10:05:20;101343.75;;;24.73;59.39
22241;BME280;11289;52.524;13.694;2023-08-17T10:07:54;101347.47;;;24.59;61.02
22241;BME280;11289;52.524;13.694;2023-08-17T10:10:31;101345.91;;;24.33;61.58
22241;BME280;11289;52.524;13.694;2023-08-17T10:13:36;101347.94;;;24.22;64.11
22241;BME280;11289;52.524;13.694;2023-08-17T10:26:18;101330.97;;;24.04;67.22
22241;BME280;11289;52.524;13.694;2023-08-17T10:29:35;101330.94;;;24.14;68.18
22241;BME280;11289;52.524;13.694;2023-08-17T10:32:50;101311.50;;;24.06;68.82
22241;BME280;11289;52.524;13.694;2023-08-17T10:35:19;101324.47;;;24.07;68.09
22241;BME280;11289;52.524;13.694;2023-08-17T10:37:48;101314.34;;;24.09;68.56
22241;BME280;11289;52.524;13.694;2023-08-17T10:40:19;101318.81;;;24.07;68.37
22241;BME280;11289;52.524;13.694;2023-08-17T10:43:08;101319.22;;;24.02;67.93
22241;BME280;11289;52.524;13.694;2023-08-17T10:45:38;101318.81;;;23.99;67.18
22241;BME280;11289;52.524;13.694;2023-08-17T10:48:46;101312.34;;;23.95;68.55
22241;BME280;11289;52.524;13.694;2023-08-17T10:51:15;101319.56;;;24.29;68.45
22241;BME280;11289;52.524;13.694;2023-08-17T10:54:13;101299.28;;;24.38;66.32
22241;BME280;11289;52.524;13.694;2023-08-17T10:56:49;101306.72;;;25.02;67.42
22241;BME280;11289;52.524;13.694;2023-08-17T10:59:25;101314.00;;;25.70;64.38
22241;BME280;11289;52.524;13.694;2023-08-17T11:01:54;101302.47;;;25.88;63.70
22241;BME280;11289;52.524;13.694;2023-08-17T11:04:22;101296.59;;;26.44;60.15
22241;BME280;11289;52.524;13.694;2023-08-17T11:07:02;101312.03;;;27.12;59.05
22241;BME280;11289;52.524;13.694;2023-08-17T11:09:29;101291.44;;;27.55;57.22
22241;BME280;11289;52.524;13.694;2023-08-17T11:12:24;101292.03;;;27.90;55.73
22241;BME280;11289;52.524;13.694;2023-08-17T11:15:12;101288.81;;;28.12;54.26
22241;BME280;11289;52.524;13.694;2023-08-17T11:18:37;101286.44;;;28.71;53.40
22241;BME280;11289;52.524;13.694;2023-08-17T11:21:29;101297.09;;;29.23;52.77
22241;BME280;11289;52.524;13.694;2023-08-17T11:24:21;101291.06;;;29.54;51.61
22241;BME280;11289;52.524;13.694;2023-08-17T11:26:59;101280.88;;;29.86;51.31
22241;BME280;11289;52.524;13.694;2023-08-17T11:33:40;101286.47;;;30.78;49.50
22241;BME280;11289;52.524;13.694;2023-08-17T11:36:32;101294.75;;;31.01;48.79
22241;BME280;11289;52.524;13.694;2023-08-17T11:43:22;101283.78;;;29.99;50.05
22241;BME280;11289;52.524;13.694;2023-08-17T11:46:18;101291.75;;;29.75;50.95
22241;BME280;11289;52.524;13.694;2023-08-17T11:48:51;101293.81;;;29.58;51.71
22241;BME280;11289;52.524;13.694;2023-08-17T11:51:34;101293.19;;;29.33;51.26
22241;BME280;11289;52.524;13.694;2023-08-17T11:54:15;101283.84;;;29.13;51.14
22241;BME280;11289;52.524;13.694;2023-08-17T11:57:08;101293.88;;;29.21;51.42
22241;BME280;11289;52.524;13.694;2023-08-17T12:02:27;101277.47;;;29.25;51.29
22241;BME280;11289;52.524;13.694;2023-08-17T12:05:02;101286.84;;;29.42;51.05
22241;BME280;11289;52.524;13.694;2023-08-17T12:10:18;101274.47;;;29.78;51.00
22241;BME280;11289;52.524;13.694;2023-08-17T12:13:00;101279.88;;;30.22;49.90
22241;BME280;11289;52.524;13.694;2023-08-17T12:15:34;101272.56;;;30.63;49.01
22241;BME280;11289;52.524;13.694;2023-08-17T12:21:15;101272.94;;;31.42;46.19
22241;BME280;11289;52.524;13.694;2023-08-17T12:23:56;101283.06;;;31.34;48.12
22241;BME280;11289;52.524;13.694;2023-08-17T12:29:56;101261.22;;;31.98;45.58
22241;BME280;11289;52.524;13.694;2023-08-17T12:32:54;101284.66;;;31.96;44.82
22241;BME280;11289;52.524;13.694;2023-08-17T12:35:29;101266.44;;;31.90;45.28
22241;BME280;11289;52.524;13.694;2023-08-17T12:38:01;101276.25;;;32.15;44.52
22241;BME280;11289;52.524;13.694;2023-08-17T12:40:50;101260.84;;;32.08;43.49
22241;BME280;11289;52.524;13.694;2023-08-17T12:43:30;101264.94;;;31.98;44.13
22241;BME280;11289;52.524;13.694;2023-08-17T12:45:59;101271.25;;;31.93;43.69
22241;BME280;11289;52.524;13.694;2023-08-17T12:48:30;101282.09;;;31.76;44.05
22241;BME280;11289;52.524;13.694;2023-08-17T12:51:05;101265.34;;;31.74;45.02
22241;BME280;11289;52.524;13.694;2023-08-17T12:53:37;101263.31;;;31.36;45.04
22241;BME280;11289;52.524;13.694;2023-08-17T12:56:38;101255.56;;;31.24;45.60
22241;BME280;11289;52.524;13.694;2023-08-17T12:59:12;101256.94;;;31.06;46.60
22241;BME280;11289;52.524;13.694;2023-08-17T13:01:47;101255.09;;;31.00;46.67
22241;BME280;11289;52.524;13.694;2023-08-17T13:04:23;101255.41;;;30.76;47.00
22241;BME280;11289;52.524;13.694;2023-08-17T13:07:01;101250.63;;;30.44;46.94
22241;BME280;11289;52.524;13.694;2023-08-17T13:09:37;101246.53;;;30.15;47.67
22241;BME280;11289;52.524;13.694;2023-08-17T13:12:12;101257.16;;;30.15;48.01
22241;BME280;11289;52.524;13.694;2023-08-17T13:14:49;101242.25;;;30.07;48.46
22241;BME280;11289;52.524;13.694;2023-08-17T13:17:28;101255.25;;;30.25;48.72
22241;BME280;11289;52.524;13.694;2023-08-17T13:20:19;101242.91;;;30.28;48.16
22241;BME280;11289;52.524;13.694;2023-08-17T13:22:50;101235.09;;;30.58;47.94
22241;BME280;11289;52.524;13.694;2023-08-17T13:25:19;101243.72;;;30.96;46.89
22241;BME280;11289;52.524;13.694;2023-08-17T13:27:45;101238.53;;;31.30;46.58